Ivan Cardozo

Jefe de ojeadores - Tacuarembo
21 Oct 2027
Jueves
Continuar

Personalidad

Adaptabilidad (10) Ambición (12) Controversia (5) Lealtad (9) Presión (19) Profesionalismo (3) Deportividad (8) Temperamento (8)

Perfil

Estilo de dirección Democrático
Licencia Continental Pro
Determinación 9
Gestión de personas 2
Motivación 4
Disciplina 4
Satisfacción laboral
100%
Fatiga
0%
Cargo Jefe de ojeadores
Salario 36.2K p/s
Contrato 14.03.2029

Rendimiento

Comportamiento Bueno
Efectividad del entrenamiento
25%
Desarrollo de jugadores
15%
Prevención de lesiones
25%
Implementación táctica
40%

Eventos recientes

Asistió a una reunión de captación 7d atrás
Asistió a una reunión de captación 14d atrás
Asistió a una reunión de captación 21d atrás
Asistió a una reunión de captación 28d atrás
Asistió a una reunión de captación 35d atrás
Asistió a una reunión de captación 42d atrás
Asistió a una reunión de captación 49d atrás
Asistió a una reunión de captación 56d atrás

Actualmente siguiendo

138
Jugador Club Estado Habilidad Confianza Observado Última observación Último voto
Facundo Techera Uruguay Montevideo Rechazado 90 / 97 69% 1 19.07.2027 Rechazar
Mateo Molinari Atenas Rechazado 80 / 80 69% 1 05.07.2027 Rechazar
Gastón Fernández Chacarita Juniors Activo 103 / 96 40% 2 29.11.2026 -
Pedro Silva Torrejón Gimnasia La Plata Activo 112 / 111 40% 1 29.11.2026 -
Maksym Tatarenko Chernihiv Activo 82 / 96 40% 1 29.11.2026 -
Anton Zhylkin Karpaty Activo 108 / 94 40% 1 28.11.2026 -
Lucas Ruiz Ferro Carril Oeste Activo 114 / 113 40% 1 28.11.2026 -
Agustín Módica Gimnasia y Esgrima Activo 128 / 125 40% 1 28.11.2026 -
Kamran Aliev SKA Khabarovsk Activo 96 / 92 40% 1 28.11.2026 -
Dimitar Sheytanov CSKA 1948 Activo 108 / 107 40% 2 26.11.2026 -
Enzo Vázquez Central Norte Activo 109 / 112 40% 1 26.11.2026 -
Joaquín Enrico San Telmo Activo 114 / 115 40% 2 25.11.2026 -
Miguel Núñez Toronto FC Activo 101 / 105 40% 1 25.11.2026 -
Nikola Simić TSC Activo 111 / 89 40% 1 23.11.2026 -
Martin Velichkov Lokomotiv Sofia Activo 104 / 111 40% 1 22.11.2026 -
Antonio Đaković HNK Vukovar 1991 Activo 109 / 105 40% 1 22.11.2026 -
Lucas Bruera Carabobo Activo 114 / 121 40% 2 21.11.2026 -
Denys Ihnatenko Livyi Bereh Activo 113 / 118 40% 1 21.11.2026 -
Alejo Antilef Debrecen Activo 110 / 112 40% 2 20.11.2026 -
Lucio Castillo Colegiales Activo 106 / 111 40% 1 20.11.2026 -
Esteban Glellel Quilmes Activo 116 / 106 40% 1 19.11.2026 -
Mariano Moyano Cukaricki Activo 112 / 116 40% 1 18.11.2026 -
Diego Gaitán Maipú Activo 106 / 122 40% 2 16.11.2026 -
Sergio Barlocco Trento Activo 100 / 96 40% 1 16.11.2026 -
Augusto Berrondo Tristán Suárez Activo 106 / 115 40% 1 16.11.2026 -
Strahinja Manojlović Radnicki Nis Activo 105 / 119 40% 1 14.11.2026 -
Matías Machado Racing Activo 115 / 109 40% 1 14.11.2026 -
Andi Vidal Zvezda Activo 77 / 95 40% 1 12.11.2026 -
Santiago Kubiszyn Morón Activo 120 / 109 40% 1 12.11.2026 -
Marcos Machado Mitre Activo 111 / 116 40% 1 11.11.2026 -
Emiliano González Almagro Activo 111 / 106 40% 2 09.11.2026 -
Francisco Castillo Llaneros Activo 106 / 95 40% 1 09.11.2026 -
Facundo Nadalín San Martín SJ Activo 115 / 121 40% 1 09.11.2026 -
Federico Bisanz Atlanta Activo 121 / 113 40% 1 09.11.2026 -
Jeferson Nolasco Cesar Vallejo Activo 99 / 95 40% 1 07.11.2026 -
Martin Trnovský Podbrezova Activo 113 / 100 40% 1 05.11.2026 -
Federico Varese Racing Activo 103 / 121 40% 1 05.11.2026 -
Jeffrey Acquah Liberty Professionals Activo 96 / 94 40% 1 04.11.2026 -
Lautaro Bursich Talleres Activo 98 / 102 40% 1 03.11.2026 -
Chisom Chiaha Barau Activo 80 / 98 40% 1 03.11.2026 -
Alcides Benítez Belgrano Activo 109 / 119 40% 1 02.11.2026 -
Ramón González Almirante Brown Activo 120 / 121 40% 1 02.11.2026 -
Gustavo Calderari Colegiales Activo 87 / 103 40% 1 30.10.2026 -
Matías Montero Madryn Activo 92 / 109 40% 2 29.10.2026 -
Sebastián Jaurena San Martín SJ Activo 109 / 120 40% 1 29.10.2026 -
Francisco Salerno Defensores Unidos Activo 102 / 110 40% 1 29.10.2026 -
Moisés Gallo Zulia Activo 92 / 91 40% 2 28.10.2026 -
Luciano Peraggini Maipú Activo 110 / 102 40% 3 28.10.2026 -
Oleksandr Saputin Poltava Activo 116 / 124 40% 1 26.10.2026 -
Tomás Durso Atlético Tucumán Activo 122 / 115 40% 1 25.10.2026 -
Joaquín Bigo Tristán Suárez Activo 103 / 117 40% 1 25.10.2026 -
Lautaro Mora Huracán Activo 101 / 118 40% 1 24.10.2026 -
Gianluca Pugliese Güemes Activo 106 / 111 40% 1 24.10.2026 -
Jonathan Lima Debrecen Activo 101 / 78 40% 1 20.10.2026 -
Oscar Meza General Caballero Activo 96 / 83 40% 1 20.10.2026 -
Yuber Quiñónes Deportivo Pereira Activo 110 / 117 40% 1 20.10.2026 -
Martín Campos Ferro Carril Oeste Activo 123 / 114 40% 1 20.10.2026 -
John Amah Plateau United Activo 94 / 100 40% 1 18.10.2026 -
Laureano Martínez Talleres Activo 100 / 97 40% 1 17.10.2026 -
Mauro Casoli Talleres Activo 102 / 94 40% 1 15.10.2026 -
Rostislav Soldatenko Torpedo Moscow Activo 101 / 106 40% 1 15.10.2026 -
Emanuel Sittaro Instituto Activo 92 / 98 40% 4 14.10.2026 -
Cristopher Varela Deportivo La Guaira Activo 117 / 111 40% 1 13.10.2026 -
Javier Bustillos Los Andes Activo 108 / 109 40% 1 12.10.2026 -
Santiago Sala Güemes Activo 103 / 106 40% 1 11.10.2026 -
Valentín Quevedo Colegiales Activo 101 / 109 40% 1 11.10.2026 -
Abel Bustos Racing Activo 111 / 104 40% 1 07.10.2026 -
Santiago Roggero Gimnasia y Esgrima Activo 104 / 106 40% 1 07.10.2026 -
Juan Pablo Noce All Boys Activo 108 / 111 40% 1 06.10.2026 -
Esteban Ojeda Estudiantes Activo 78 / 81 40% 1 06.10.2026 -
Isaac Boehmer Vancouver Whitecaps Activo 106 / 95 40% 1 04.10.2026 -
Lucas Verza Olimpia Activo 111 / 107 40% 2 03.10.2026 -
Tiago Libares All Boys Activo 111 / 100 40% 1 03.10.2026 -
Milton Cantero Talleres Activo 90 / 96 40% 1 02.10.2026 -
Alejo Osella Independiente Rivadavia Activo 123 / 106 40% 1 02.10.2026 -
Matías Tagliamonte Racing Club Activo 115 / 122 40% 1 02.10.2026 -
Juan Pablo Barinaga Patronato Activo 106 / 120 40% 1 27.09.2026 -
Franko Kolić Istra 1961 Activo 105 / 121 40% 1 25.09.2026 -
Sebastián Alzate Once Caldas Activo 72 / 92 40% 1 24.09.2026 -
Sebastián Cocimano Nueva Chicago Activo 109 / 119 40% 1 23.09.2026 -
José Cotrina Bekescsaba Activo 103 / 88 40% 1 21.09.2026 -
Jimmy Evans Universidad Catolica Activo 99 / 95 40% 1 21.09.2026 -
Mauro Rodas Sportivo Trinidense Activo 83 / 88 40% 1 19.09.2026 -
Timothy Zechariah Rivers United Activo 111 / 93 40% 1 18.09.2026 -
Junior Dávila Deportivo Municipal Activo 83 / 97 40% 1 16.09.2026 -
Adrián Csenterics Estudiantes de Merida Activo 89 / 97 40% 1 15.09.2026 -
Ricardo Bettocchi UTC Activo 79 / 86 40% 2 14.09.2026 -
Bayron Martínez Santiago Wanderers Activo 74 / 89 40% 1 14.09.2026 -
Nicolás Rossi Juventud Activo 117 / 117 40% 1 13.09.2026 -
Žiga Frelih NK Celje Activo 123 / 119 40% 1 13.09.2026 -
Ignacio Núñez Union Espanola Activo 101 / 94 40% 1 13.09.2026 -
Marco Oroná Antofagasta Activo 90 / 94 40% 1 12.09.2026 -
Matías Núñez Carabobo Activo 111 / 92 40% 1 12.09.2026 -
Biola Sabitu Remo Stars Activo 74 / 94 40% 1 11.09.2026 -
Fernando Tapia Club America Activo 129 / 127 40% 1 11.09.2026 -
Daniel Monardes San Luis Activo 84 / 98 40% 1 10.09.2026 -
Diego Valencia Universidad Catolica Activo 106 / 107 40% 1 10.09.2026 -
Jorge Espejo Universidad de Concepcion Activo 111 / 116 40% 1 09.09.2026 -
Andrés Gudiño Cruz Azul Activo 112 / 128 40% 1 07.09.2026 -
Reynaldo Fontalvo Real Cartagena Activo 91 / 106 40% 2 06.09.2026 -
Mateo Anaya Kudrivka Activo 86 / 78 40% 1 05.09.2026 -
Williams Barlasina Fortaleza CEIF Activo 112 / 110 40% 1 04.09.2026 -
Hugo Palacios Union Magdalena Activo 104 / 100 40% 1 04.09.2026 -
Carlos Faya Deportivo La Guaira Activo 111 / 101 40% 1 04.09.2026 -
Giacomo Gambetta Ayacucho Activo 95 / 106 40% 1 02.09.2026 -
Roameth Romaña Llaneros Activo 109 / 99 40% 1 01.09.2026 -
Sebastián Miño Patronato Activo 79 / 75 40% 1 01.09.2026 -
Vincent Edafe Warri Wolves Activo 103 / 111 40% 1 31.08.2026 -
Cristóbal Marín Antofagasta Activo 80 / 69 40% 1 31.08.2026 -
Jorge Hernández Tijuana Activo 117 / 126 40% 1 30.08.2026 -
Pedro González Cerro Largo Activo 98 / 119 40% 1 30.08.2026 -
Manuel Tasso New York City Activo 89 / 89 40% 3 29.08.2026 -
Miguel Silva Carabobo Activo 112 / 109 40% 1 29.08.2026 -
Juan Diego Arboleda Leones Activo 82 / 94 40% 1 28.08.2026 -
Stefano Condino All Boys Activo 75 / 83 40% 1 24.08.2026 -
Agustín Araujo Trujillanos Activo 97 / 104 40% 2 23.08.2026 -
Daniel Arcila Leon Activo 114 / 114 40% 1 23.08.2026 -
Andrés Macea Real Santander Activo 83 / 91 40% 1 21.08.2026 -
Luis Corredor Estudiantes de Caracas Activo 90 / 95 40% 1 19.08.2026 -
Valentín Robaldo Alianza Atletico Activo 98 / 110 40% 1 19.08.2026 -
Mateo Seoane Gimnasia La Plata Activo 108 / 131 40% 1 17.08.2026 -
Leandro Suhr Boston River Activo 128 / 122 40% 1 17.08.2026 -
José Hernández Queretaro Activo 114 / 99 40% 1 17.08.2026 -
José Miers 12 de Octubre Activo 105 / 91 40% 1 16.08.2026 -
Santiago Godoy 12 de Octubre Activo 90 / 90 40% 1 16.08.2026 -
Beycker Velásquez Zamora Activo 105 / 104 40% 1 14.08.2026 -
Marco Espíndola Obolon Activo 85 / 79 40% 1 14.08.2026 -
Agustín Pérez Deportivo Tachira Activo 102 / 94 40% 1 12.08.2026 -
Ángel Espínola Sportivo Luqueno Activo 91 / 102 40% 1 12.08.2026 -
Ciro Thompson Newell's Old Boys Activo 89 / 85 40% 1 11.08.2026 -
José Febres Trujillanos Activo 89 / 92 40% 1 09.08.2026 -
Johan Hinestroza Jaguares Activo 109 / 93 40% 1 09.08.2026 -
César Munder Palestino Activo 116 / 109 40% 1 09.08.2026 -
Gustavo Rodriguez Valledupar Activo 105 / 108 40% 1 09.08.2026 -
Aldo Pérez Guarani Activo 111 / 115 40% 1 06.08.2026 -
Tomás Palleres Güemes Activo 97 / 95 40% 1 02.08.2026 -
Santiago Luján Huracán Activo 117 / 121 40% 1 02.08.2026 -
Tomás Galván River Plate Activo 128 / 133 40% 1 02.08.2026 -